createdAt,value
2022-11-20T00:01:15.328Z,85.00
2022-11-20T00:03:43.071Z,85.50
2022-11-20T00:06:15.028Z,85.31
2022-11-20T00:08:45.548Z,85.37
2022-11-20T00:11:21.822Z,85.69
2022-11-20T00:13:52.432Z,85.67
2022-11-20T00:16:23.287Z,85.41
2022-11-20T00:18:51.501Z,85.86
2022-11-20T00:21:27.385Z,86.24
2022-11-20T00:23:56.691Z,85.56
2022-11-20T00:26:25.920Z,85.38
2022-11-20T00:29:02.056Z,85.06
2022-11-20T00:31:30.733Z,85.20
2022-11-20T00:33:58.339Z,84.95
2022-11-20T00:36:28.356Z,85.48
2022-11-20T00:38:58.246Z,86.14
2022-11-20T00:41:27.519Z,86.10
2022-11-20T00:43:56.183Z,84.36
2022-11-20T00:46:26.521Z,84.79
2022-11-20T00:48:54.263Z,84.94
2022-11-20T00:51:23.768Z,83.77
2022-11-20T00:53:51.533Z,84.43
2022-11-20T00:56:20.388Z,83.96
2022-11-20T00:58:49.359Z,82.89
2022-11-20T01:01:22.367Z,82.42
2022-11-20T01:03:51.805Z,81.58
2022-11-20T01:06:24.720Z,81.61
2022-11-20T01:08:54.760Z,82.54
2022-11-20T01:11:24.777Z,82.38
2022-11-20T01:13:53.711Z,82.75
2022-11-20T01:16:24.099Z,82.84
2022-11-20T01:18:53.300Z,82.24
2022-11-20T01:21:29.754Z,82.34
2022-11-20T01:23:57.933Z,83.31
2022-11-20T01:26:28.424Z,83.36
2022-11-20T01:28:57.120Z,83.19
2022-11-20T01:31:27.754Z,82.45
2022-11-20T01:33:57.511Z,82.26
2022-11-20T01:36:27.350Z,82.27
2022-11-20T01:38:56.516Z,81.43
2022-11-20T01:41:44.102Z,81.52
2022-11-20T01:44:15.951Z,82.26
2022-11-20T01:47:03.388Z,82.91
2022-11-20T01:49:38.174Z,82.84
2022-11-20T01:52:25.768Z,82.92
2022-11-20T01:54:58.053Z,82.58
2022-11-20T01:57:28.939Z,82.86
2022-11-20T02:00:06.383Z,83.94
2022-11-20T02:02:43.493Z,84.17
2022-11-20T02:05:28.320Z,83.37
2022-11-20T02:07:58.834Z,84.19
2022-11-20T02:10:28.216Z,83.17
2022-11-20T02:13:14.141Z,82.46
2022-11-20T02:15:41.942Z,82.83
2022-11-20T02:18:11.029Z,83.29
2022-11-20T02:20:41.198Z,83.04
2022-11-20T02:23:40.454Z,82.44
2022-11-20T02:26:11.703Z,81.97
2022-11-20T02:28:39.224Z,82.42
2022-11-20T02:31:06.593Z,82.14
2022-11-20T02:33:34.012Z,82.69
2022-11-20T02:36:01.625Z,83.16
2022-11-20T02:38:29.176Z,83.28
2022-11-20T02:40:56.516Z,82.59
2022-11-20T02:43:24.464Z,83.15
2022-11-20T02:45:51.848Z,84.25
2022-11-20T02:48:19.210Z,83.71
2022-11-20T02:50:46.558Z,83.18
2022-11-20T02:53:13.976Z,83.79
2022-11-20T02:55:41.412Z,83.30
2022-11-20T02:58:08.801Z,82.89
2022-11-20T03:00:36.621Z,83.24
2022-11-20T03:03:04.019Z,83.01
2022-11-20T03:05:31.410Z,82.86
2022-11-20T03:07:58.747Z,82.79
2022-11-20T03:10:26.255Z,83.57
2022-11-20T03:12:56.944Z,84.33
2022-11-20T03:15:24.893Z,82.58
2022-11-20T03:17:56.517Z,81.70
2022-11-20T03:20:24.377Z,81.46
2022-11-20T03:22:51.903Z,80.96
2022-11-20T03:25:19.319Z,80.08
2022-11-20T03:27:46.723Z,79.12
2022-11-20T03:30:15.000Z,79.03
2022-11-20T03:32:43.051Z,78.74
2022-11-20T03:35:10.812Z,79.04
2022-11-20T03:37:38.281Z,79.28
2022-11-20T03:40:06.627Z,78.68
2022-11-20T03:42:46.082Z,78.04
2022-11-20T03:45:15.309Z,77.68
2022-11-20T03:47:43.560Z,76.57
2022-11-20T03:50:14.054Z,77.26
2022-11-20T03:52:42.273Z,76.54
2022-11-20T03:55:10.605Z,75.53
2022-11-20T03:57:38.134Z,76.39
2022-11-20T04:00:06.953Z,76.76
2022-11-20T04:02:34.356Z,77.15
2022-11-20T04:05:20.232Z,76.66
2022-11-20T04:07:47.567Z,78.43
2022-11-20T04:10:14.968Z,79.13
2022-11-20T04:12:42.332Z,79.97
2022-11-20T04:15:10.432Z,78.71
2022-11-20T04:17:38.053Z,80.69
2022-11-20T04:20:06.061Z,80.73
2022-11-20T04:22:33.569Z,81.18
2022-11-20T04:25:01.001Z,81.30
2022-11-20T04:27:28.407Z,81.39
2022-11-20T04:29:55.830Z,81.15
2022-11-20T04:32:23.226Z,82.55
2022-11-20T04:34:50.575Z,83.01
2022-11-20T04:37:18.012Z,82.64
2022-11-20T04:39:45.484Z,82.98
2022-11-20T04:42:31.286Z,83.22
2022-11-20T04:44:59.108Z,83.39
2022-11-20T04:47:26.681Z,82.69
2022-11-20T04:49:54.294Z,84.18
2022-11-20T04:52:21.775Z,84.13
2022-11-20T04:54:49.217Z,84.32
2022-11-20T04:57:16.593Z,84.41
2022-11-20T04:59:44.001Z,83.80
2022-11-20T05:02:12.052Z,84.15
2022-11-20T05:04:39.446Z,84.41
2022-11-20T05:07:06.878Z,84.97
2022-11-20T05:09:34.472Z,85.30
2022-11-20T05:12:01.889Z,85.26
2022-11-20T05:14:29.301Z,85.80
2022-11-20T05:16:56.786Z,86.12
2022-11-20T05:19:24.228Z,86.29
2022-11-20T05:21:51.756Z,86.86
2022-11-20T05:24:19.153Z,86.50
2022-11-20T05:26:46.538Z,87.07
2022-11-20T05:29:14.233Z,86.99
2022-11-20T05:31:41.983Z,86.97
2022-11-20T05:34:09.595Z,88.40
2022-11-20T05:36:37.009Z,87.62
2022-11-20T05:39:04.833Z,86.74
2022-11-20T05:41:34.399Z,86.31
2022-11-20T05:44:01.803Z,86.86
2022-11-20T05:46:29.771Z,86.96
2022-11-20T05:48:58.491Z,87.66
2022-11-20T05:51:26.849Z,86.93
2022-11-20T05:53:54.356Z,87.44
2022-11-20T05:56:23.133Z,87.36
2022-11-20T05:58:50.871Z,86.58
2022-11-20T06:01:22.475Z,85.73
2022-11-20T06:03:51.899Z,85.69
2022-11-20T06:06:20.924Z,85.57
2022-11-20T06:08:48.747Z,86.77
2022-11-20T06:11:17.220Z,86.67
2022-11-20T06:13:45.043Z,86.14
2022-11-20T06:16:15.346Z,85.99
2022-11-20T06:18:42.964Z,85.46
2022-11-20T06:21:18.984Z,86.59
2022-11-20T06:23:47.515Z,88.61
2022-11-20T06:26:20.973Z,88.58
2022-11-20T06:28:48.650Z,87.80
2022-11-20T06:31:19.322Z,87.17
2022-11-20T06:33:46.979Z,87.11
2022-11-20T06:36:16.143Z,87.21
2022-11-20T06:38:44.314Z,87.16
2022-11-20T06:41:14.689Z,86.66
2022-11-20T06:43:42.183Z,85.53
2022-11-20T06:46:11.871Z,85.39
2022-11-20T06:48:39.926Z,85.83
2022-11-20T06:51:10.451Z,84.78
2022-11-20T06:53:38.712Z,85.01
2022-11-20T06:56:07.344Z,84.70
2022-11-20T06:58:36.479Z,84.78
2022-11-20T07:01:07.474Z,84.35
2022-11-20T07:03:35.588Z,83.79
2022-11-20T07:06:03.631Z,84.22
2022-11-20T07:08:31.484Z,83.42
2022-11-20T07:11:00.916Z,82.82
2022-11-20T07:13:29.481Z,83.98
2022-11-20T07:16:01.526Z,82.69
2022-11-20T07:18:28.991Z,83.26
2022-11-20T07:20:56.485Z,84.52
2022-11-20T07:23:23.877Z,84.25
2022-11-20T07:25:51.199Z,83.25
2022-11-20T07:28:18.598Z,83.60
2022-11-20T07:30:54.043Z,84.00
2022-11-20T07:33:21.707Z,83.37
2022-11-20T07:35:50.312Z,82.33
2022-11-20T07:38:17.979Z,81.98
2022-11-20T07:40:45.491Z,81.03
2022-11-20T07:43:12.972Z,80.79
2022-11-20T07:45:40.844Z,79.65
2022-11-20T07:48:08.238Z,79.74
2022-11-20T07:50:35.579Z,78.38
2022-11-20T07:53:05.220Z,77.69
2022-11-20T07:55:33.391Z,77.16
2022-11-20T07:58:00.912Z,76.54
2022-11-20T08:00:28.647Z,77.19
2022-11-20T08:02:56.082Z,75.83
2022-11-20T08:05:23.659Z,76.02
2022-11-20T08:07:51.028Z,75.58
2022-11-20T08:10:18.673Z,75.65
2022-11-20T08:13:09.549Z,75.21
2022-11-20T08:15:38.219Z,74.74
2022-11-20T08:21:17.775Z,74.31
2022-11-20T08:23:45.087Z,73.20
2022-11-20T08:26:12.517Z,72.83
2022-11-20T08:28:39.835Z,72.04
2022-11-20T08:31:07.432Z,70.92
2022-11-20T08:33:34.755Z,70.56
2022-11-20T08:36:04.646Z,70.33
2022-11-20T08:38:32.818Z,70.27
2022-11-20T08:41:20.183Z,69.85
2022-11-20T08:43:47.572Z,68.59
2022-11-20T08:46:15.333Z,68.18
2022-11-20T08:48:42.887Z,66.94
2022-11-20T08:51:11.164Z,65.92
2022-11-20T08:53:39.612Z,65.99
2022-11-20T08:56:07.403Z,65.26
2022-11-20T08:58:54.952Z,64.49
2022-11-20T09:01:24.245Z,65.13
2022-11-20T09:03:51.796Z,65.26
2022-11-20T09:06:19.452Z,64.28
2022-11-20T09:08:46.882Z,64.32
2022-11-20T09:11:14.275Z,64.56
2022-11-20T09:13:41.667Z,64.03
2022-11-20T09:16:10.392Z,63.17
2022-11-20T09:18:38.423Z,62.96
2022-11-20T09:21:09.888Z,62.04
2022-11-20T09:23:38.557Z,62.22
2022-11-20T09:26:09.916Z,60.22
2022-11-20T09:28:37.396Z,59.77
2022-11-20T09:31:09.616Z,57.29
2022-11-20T09:33:37.295Z,57.55
2022-11-20T09:36:11.689Z,56.85
2022-11-20T09:38:39.099Z,56.48
2022-11-20T09:41:07.738Z,57.73
2022-11-20T09:43:39.855Z,57.73
2022-11-20T09:46:18.350Z,57.30
2022-11-20T09:49:03.171Z,57.26
2022-11-20T09:52:07.287Z,58.59
2022-11-20T09:54:38.560Z,59.56
2022-11-20T09:57:26.487Z,60.46
2022-11-20T10:00:00.184Z,61.25
2022-11-20T10:02:40.837Z,62.03
2022-11-20T10:05:20.607Z,62.27
2022-11-20T10:08:07.459Z,63.18
2022-11-20T10:10:43.502Z,62.98
2022-11-20T10:13:44.608Z,63.67
2022-11-20T10:16:15.439Z,64.34
2022-11-20T10:18:52.309Z,63.75
2022-11-20T10:21:50.051Z,63.75
2022-11-20T10:24:35.959Z,64.31
2022-11-20T10:27:25.136Z,64.72
2022-11-20T10:30:09.064Z,64.61
2022-11-20T10:32:40.345Z,63.43
2022-11-20T10:35:21.215Z,63.46
2022-11-20T10:38:03.858Z,63.47
2022-11-20T10:40:40.998Z,63.50
2022-11-20T10:43:14.242Z,62.80
2022-11-20T10:45:50.688Z,63.23
2022-11-20T10:48:23.917Z,62.59
2022-11-20T10:51:04.150Z,62.10
2022-11-20T10:54:05.227Z,62.92
2022-11-20T10:56:40.911Z,61.66
2022-11-20T10:59:34.586Z,63.12
2022-11-20T11:02:03.449Z,63.01
2022-11-20T11:04:39.910Z,62.92
2022-11-20T11:07:18.932Z,62.57
2022-11-20T11:09:56.944Z,63.09
2022-11-20T11:12:29.840Z,63.45
2022-11-20T11:14:58.671Z,62.95
2022-11-20T11:17:31.622Z,63.27
2022-11-20T11:20:03.866Z,62.90
2022-11-20T11:22:33.923Z,62.14
2022-11-20T11:25:01.868Z,61.81
2022-11-20T11:27:29.213Z,62.33
2022-11-20T11:30:12.962Z,62.81
2022-11-20T11:32:40.320Z,62.02
2022-11-20T11:35:24.605Z,61.34
2022-11-20T11:37:55.122Z,61.35
2022-11-20T11:40:24.680Z,61.92
2022-11-20T11:42:59.064Z,62.46
2022-11-20T11:45:26.860Z,63.70
2022-11-20T11:47:57.766Z,63.76
2022-11-20T11:50:30.319Z,66.11
2022-11-20T11:53:20.828Z,68.44
2022-11-20T11:56:09.811Z,69.19
2022-11-20T11:58:47.812Z,69.84
2022-11-20T12:01:34.363Z,70.20
2022-11-20T12:04:20.532Z,70.99
2022-11-20T12:10:35.826Z,70.68
2022-11-20T12:13:22.146Z,70.97
2022-11-20T12:15:50.211Z,71.16
2022-11-20T12:18:21.129Z,71.20
2022-11-20T12:21:25.979Z,71.49
2022-11-20T12:24:12.489Z,71.36
2022-11-20T12:26:58.292Z,71.35
2022-11-20T12:29:34.494Z,70.82
2022-11-20T12:32:16.788Z,70.33
2022-11-20T12:34:48.660Z,70.14
2022-11-20T12:37:19.239Z,69.97
2022-11-20T12:39:53.536Z,69.72
2022-11-20T12:43:03.769Z,69.22
2022-11-20T12:45:52.082Z,68.47
2022-11-20T12:48:44.978Z,68.02
2022-11-20T12:51:40.882Z,68.09
2022-11-20T12:54:53.945Z,68.28
2022-11-20T12:57:46.031Z,67.85
2022-11-20T13:00:16.274Z,67.76
2022-11-20T13:03:09.061Z,67.30
2022-11-20T13:05:52.000Z,67.28
2022-11-20T13:08:37.053Z,67.34
2022-11-20T13:11:13.698Z,66.77
2022-11-20T13:14:04.836Z,66.66
2022-11-20T13:16:45.940Z,65.24
2022-11-20T13:19:16.149Z,64.58
2022-11-20T13:21:50.550Z,63.99
2022-11-20T13:24:24.675Z,63.28
2022-11-20T13:27:14.978Z,62.56
2022-11-20T13:29:46.027Z,62.76
2022-11-20T13:32:18.756Z,63.60
2022-11-20T13:34:57.554Z,63.87
2022-11-20T13:37:36.970Z,63.69
2022-11-20T13:40:13.313Z,64.59
2022-11-20T13:42:43.663Z,64.16
2022-11-20T13:45:29.296Z,64.48
2022-11-20T13:47:58.012Z,64.08
2022-11-20T13:50:47.205Z,64.20
2022-11-20T13:53:33.218Z,64.43
2022-11-20T13:56:07.658Z,63.75
2022-11-20T13:59:05.289Z,63.63
2022-11-20T14:01:33.845Z,63.55
2022-11-20T14:04:16.223Z,64.54
2022-11-20T14:06:45.867Z,64.38
2022-11-20T14:09:25.818Z,63.88
2022-11-20T14:11:53.393Z,64.28
2022-11-20T14:14:23.765Z,65.01
2022-11-20T14:16:52.368Z,64.31
2022-11-20T14:19:22.723Z,64.42
2022-11-20T14:21:53.065Z,64.89
2022-11-20T14:24:23.522Z,65.35
2022-11-20T14:26:52.910Z,65.80
2022-11-20T14:29:24.872Z,65.71
2022-11-20T14:31:55.209Z,65.85
2022-11-20T14:34:26.103Z,66.02
2022-11-20T14:37:00.743Z,65.98
2022-11-20T14:39:41.685Z,66.51
2022-11-20T14:42:18.003Z,66.88
2022-11-20T14:44:46.462Z,67.68
2022-11-20T14:47:16.776Z,67.73
2022-11-20T14:49:44.684Z,67.95
2022-11-20T14:52:21.424Z,68.00
2022-11-20T14:54:51.419Z,68.10
2022-11-20T14:57:36.484Z,68.40
2022-11-20T15:00:24.409Z,69.09
2022-11-20T15:02:53.200Z,69.66
2022-11-20T15:05:23.561Z,69.97
2022-11-20T15:08:08.165Z,69.87
2022-11-20T15:10:35.995Z,70.35
2022-11-20T15:13:13.697Z,70.35
2022-11-20T15:15:49.084Z,70.81
2022-11-20T15:18:23.500Z,71.17
2022-11-20T15:20:52.281Z,71.55
2022-11-20T15:23:20.557Z,72.08
2022-11-20T15:25:49.409Z,72.35
2022-11-20T15:28:26.523Z,72.59
2022-11-20T15:30:53.945Z,72.91
2022-11-20T15:33:21.294Z,73.37
2022-11-20T15:35:48.829Z,73.43
2022-11-20T15:38:16.359Z,74.11
2022-11-20T15:40:43.975Z,74.17
2022-11-20T15:43:13.555Z,74.52
2022-11-20T15:45:52.939Z,75.09
2022-11-20T15:48:22.970Z,75.42
2022-11-20T15:51:01.812Z,75.61
2022-11-20T15:53:29.361Z,75.57
2022-11-20T15:55:56.809Z,75.80
2022-11-20T15:58:25.242Z,76.02
2022-11-20T16:00:52.656Z,76.33
2022-11-20T16:03:20.516Z,76.46
2022-11-20T16:05:47.955Z,76.73
2022-11-20T16:08:15.696Z,77.02
2022-11-20T16:10:43.259Z,77.65
2022-11-20T16:13:37.368Z,78.48
2022-11-20T16:16:09.228Z,79.24
2022-11-20T16:18:36.520Z,79.51
2022-11-20T16:21:04.260Z,79.48
2022-11-20T16:23:31.908Z,79.32
2022-11-20T16:25:59.245Z,79.40
2022-11-20T16:28:26.674Z,79.32
2022-11-20T16:30:54.085Z,79.89
2022-11-20T16:33:21.481Z,80.57
2022-11-20T16:35:48.797Z,81.04
2022-11-20T16:38:16.164Z,81.20
2022-11-20T16:40:43.607Z,82.09
2022-11-20T16:43:14.674Z,81.68
2022-11-20T16:45:44.051Z,81.45
2022-11-20T16:48:16.749Z,81.71
2022-11-20T16:50:52.608Z,81.27
2022-11-20T16:53:21.995Z,81.19
2022-11-20T16:55:49.607Z,80.92
2022-11-20T16:58:17.040Z,80.91
2022-11-20T17:00:51.217Z,81.40
2022-11-20T17:03:19.216Z,81.81
2022-11-20T17:05:46.850Z,81.85
2022-11-20T17:08:14.284Z,81.84
2022-11-20T17:10:42.638Z,82.34
2022-11-20T17:13:10.178Z,82.47
2022-11-20T17:15:37.550Z,82.20
2022-11-20T17:18:05.195Z,82.74
2022-11-20T17:20:32.556Z,82.81
2022-11-20T17:23:00.000Z,83.14
2022-11-20T17:25:27.473Z,83.05
2022-11-20T17:27:54.974Z,82.63
2022-11-20T17:30:22.371Z,83.36
2022-11-20T17:32:49.809Z,83.01
2022-11-20T17:35:17.245Z,83.98
2022-11-20T17:37:44.615Z,84.49
2022-11-20T17:40:12.043Z,84.81
2022-11-20T17:42:39.472Z,84.62
2022-11-20T17:45:07.138Z,84.86
2022-11-20T17:47:37.021Z,84.89
2022-11-20T17:50:05.248Z,84.64
2022-11-20T17:52:32.660Z,85.59
2022-11-20T17:55:00.102Z,85.70
2022-11-20T17:57:45.976Z,85.69
2022-11-20T18:00:16.527Z,85.62
2022-11-20T18:02:43.896Z,86.09
2022-11-20T18:05:11.588Z,86.43
2022-11-20T18:07:41.844Z,87.21
2022-11-20T18:10:09.751Z,86.70
2022-11-20T18:12:37.132Z,86.57
2022-11-20T18:15:04.714Z,87.47
2022-11-20T18:17:32.136Z,88.10
2022-11-20T18:20:31.303Z,88.29
2022-11-20T18:22:47.051Z,88.03
2022-11-20T18:25:14.571Z,88.30
2022-11-20T18:27:41.914Z,88.84
2022-11-20T18:30:10.144Z,89.48
2022-11-20T18:32:38.338Z,89.14
2022-11-20T18:35:06.243Z,88.85
2022-11-20T18:37:33.714Z,88.64
2022-11-20T18:40:01.070Z,89.36
2022-11-20T18:42:47.009Z,90.07
2022-11-20T18:45:15.048Z,89.53
2022-11-20T18:47:42.555Z,89.65
2022-11-20T18:50:10.384Z,89.77
2022-11-20T18:52:42.153Z,89.74
2022-11-20T18:55:10.352Z,90.08
2022-11-20T18:57:37.955Z,91.03
2022-11-20T19:00:09.397Z,91.18
2022-11-20T19:02:42.984Z,91.24
2022-11-20T19:05:14.664Z,91.44
2022-11-20T19:07:43.010Z,90.13
2022-11-20T19:10:10.847Z,91.03
2022-11-20T19:12:38.487Z,90.88
2022-11-20T19:15:06.623Z,91.61
2022-11-20T19:17:34.309Z,92.18
2022-11-20T19:20:01.708Z,92.44
2022-11-20T19:22:29.230Z,91.57
2022-11-20T19:24:56.596Z,91.15
2022-11-20T19:27:24.169Z,91.54
2022-11-20T19:29:51.840Z,91.63
2022-11-20T19:32:19.191Z,91.68
2022-11-20T19:34:56.796Z,91.83
2022-11-20T19:37:25.325Z,91.25
2022-11-20T19:39:52.711Z,91.00
2022-11-20T19:42:20.164Z,91.46
2022-11-20T19:44:47.704Z,91.84
2022-11-20T19:47:15.147Z,92.41
2022-11-20T19:49:42.579Z,92.77
2022-11-20T19:52:10.027Z,92.48
2022-11-20T19:54:37.381Z,91.78
2022-11-20T19:57:04.784Z,91.11
2022-11-20T19:59:32.131Z,91.37
2022-11-20T20:01:59.573Z,91.55
2022-11-20T20:04:27.197Z,91.71
2022-11-20T20:06:54.703Z,90.79
2022-11-20T20:09:23.923Z,91.15
2022-11-20T20:11:51.497Z,90.87
2022-11-20T20:14:19.218Z,91.20
2022-11-20T20:16:46.775Z,91.38
2022-11-20T20:19:15.791Z,91.51
2022-11-20T20:21:44.236Z,91.57
2022-11-20T20:24:11.981Z,91.50
2022-11-20T20:26:39.490Z,91.63
2022-11-20T20:29:06.892Z,90.68
2022-11-20T20:31:34.711Z,90.41
2022-11-20T20:34:05.202Z,90.39
2022-11-20T20:36:37.351Z,90.44
2022-11-20T20:39:04.707Z,91.74
2022-11-20T20:41:32.656Z,92.07
2022-11-20T20:44:20.137Z,91.79
2022-11-20T20:46:47.543Z,90.85
2022-11-20T20:49:15.073Z,90.47
2022-11-20T20:51:42.664Z,91.37
2022-11-20T20:54:10.105Z,92.29
2022-11-20T20:56:37.558Z,93.55
2022-11-20T20:59:05.012Z,93.71
2022-11-20T21:01:32.622Z,93.29
2022-11-20T21:04:00.389Z,93.28
2022-11-20T21:06:27.793Z,93.96
2022-11-20T21:08:57.377Z,93.57
2022-11-20T21:11:24.790Z,93.14
2022-11-20T21:13:52.305Z,92.40
2022-11-20T21:16:25.050Z,91.75
2022-11-20T21:18:52.516Z,91.39
2022-11-20T21:21:38.331Z,90.67
2022-11-20T21:24:06.171Z,90.80
2022-11-20T21:26:33.697Z,91.79
2022-11-20T21:29:20.512Z,92.78
2022-11-20T21:31:48.026Z,93.19
2022-11-20T21:34:16.710Z,93.30
2022-11-20T21:36:44.242Z,93.59
2022-11-20T21:39:12.977Z,93.28
2022-11-20T21:41:42.237Z,93.29
2022-11-20T21:47:00.436Z,93.31
2022-11-20T21:49:27.875Z,92.74
2022-11-20T21:51:55.339Z,92.33
2022-11-20T21:54:23.038Z,91.36
2022-11-20T21:56:50.837Z,90.97
2022-11-20T21:59:18.413Z,90.76
2022-11-20T22:01:45.814Z,90.67
2022-11-20T22:04:15.023Z,91.04
2022-11-20T22:06:42.394Z,91.55
2022-11-20T22:09:11.035Z,91.09
2022-11-20T22:11:38.382Z,90.47
2022-11-20T22:14:20.680Z,91.07
2022-11-20T22:16:52.257Z,91.06
2022-11-20T22:19:21.146Z,91.55
2022-11-20T22:21:50.993Z,90.20
2022-11-20T22:24:21.126Z,90.43
2022-11-20T22:26:49.260Z,90.82
2022-11-20T22:29:18.967Z,90.38
2022-11-20T22:31:47.717Z,90.49
2022-11-20T22:34:15.253Z,90.46
2022-11-20T22:36:43.023Z,90.93
2022-11-20T22:39:10.794Z,91.16
2022-11-20T22:41:38.229Z,92.01
2022-11-20T22:44:07.687Z,92.11
2022-11-20T22:46:36.822Z,91.63
2022-11-20T22:49:07.037Z,91.14
2022-11-20T22:51:37.141Z,90.68
2022-11-20T22:54:05.111Z,90.35
2022-11-20T22:56:33.560Z,91.38
2022-11-20T22:59:01.155Z,91.98
2022-11-20T23:01:34.080Z,91.62
2022-11-20T23:04:04.100Z,90.99
2022-11-20T23:06:35.292Z,90.13
2022-11-20T23:09:05.365Z,89.95
2022-11-20T23:11:33.698Z,90.50
2022-11-20T23:14:03.895Z,90.64
2022-11-20T23:16:32.563Z,91.26
2022-11-20T23:19:05.985Z,90.97
2022-11-20T23:21:35.669Z,90.95
2022-11-20T23:24:03.676Z,90.08
2022-11-20T23:26:35.535Z,89.80
2022-11-20T23:29:04.148Z,90.39
2022-11-20T23:31:33.305Z,89.74
2022-11-20T23:34:01.108Z,90.32
2022-11-20T23:36:28.468Z,89.86
2022-11-20T23:38:56.119Z,90.32
2022-11-20T23:41:23.520Z,89.82
2022-11-20T23:43:50.931Z,89.34
2022-11-20T23:46:18.462Z,89.13
2022-11-20T23:48:45.935Z,89.99
2022-11-20T23:51:14.004Z,90.52
2022-11-20T23:53:41.616Z,90.69
2022-11-20T23:56:09.134Z,90.76
2022-11-20T23:58:38.144Z,90.78
